Goldens Brg, New York
Current Conditions -  °F | °C
As of 11:53 AM on Monday 22 Dec 2014 (Local Time) from KDXR Reporting Station
Overcast Overcast  
Wind Chill: 33°   Ceiling: 1100
Heat Index: 38°   Visibility: 9mi
Dew Point: 33°   Wind: 6mph
Humidity: 83%   Direction: 80°E
Pressure: 30.31"   Gusts: NA
Location:  41.2988°N, 73.667°W
Report Text: KDXR 221653Z 08005KT 9SM BKN011 BKN030 OVC040 03/01 A3031 RMK AO2 SLP268 T00330006
Loading
Personal Weather Stations






























Interactive Weather Map New forecast layout! Learn more

10-Day Weather Forecast

Advertisements
Track Severe Weather on mobile